sensor_id;sensor_type;location;lat;lon;timestamp;pressure;altitude;pressure_sealevel;temperature;humidity
50550;BME280;36505;52.512;13.460;2022-09-03T00:01:17;101424.00;;;13.97;53.85
50550;BME280;36505;52.512;13.460;2022-09-03T00:03:51;101417.84;;;13.90;53.83
50550;BME280;36505;52.512;13.460;2022-09-03T00:06:25;101418.91;;;13.89;53.72
50550;BME280;36505;52.512;13.460;2022-09-03T00:12:00;101418.84;;;13.83;54.07
50550;BME280;36505;52.512;13.460;2022-09-03T00:14:43;101413.31;;;13.83;54.21
50550;BME280;36505;52.512;13.460;2022-09-03T00:17:17;101422.91;;;13.81;54.15
50550;BME280;36505;52.512;13.460;2022-09-03T00:19:56;101420.91;;;13.76;54.57
50550;BME280;36505;52.512;13.460;2022-09-03T00:22:27;101412.06;;;13.74;54.40
50550;BME280;36505;52.512;13.460;2022-09-03T00:24:55;101409.81;;;13.71;54.74
50550;BME280;36505;52.512;13.460;2022-09-03T00:27:26;101414.50;;;13.71;54.77
50550;BME280;36505;52.512;13.460;2022-09-03T00:29:59;101410.31;;;13.68;54.66
50550;BME280;36505;52.512;13.460;2022-09-03T00:32:32;101415.22;;;13.66;54.98
50550;BME280;36505;52.512;13.460;2022-09-03T00:35:01;101415.47;;;13.65;54.92
50550;BME280;36505;52.512;13.460;2022-09-03T00:37:27;101410.47;;;13.62;55.12
50550;BME280;36505;52.512;13.460;2022-09-03T00:39:54;101408.47;;;13.57;55.21
50550;BME280;36505;52.512;13.460;2022-09-03T00:53:25;101411.78;;;13.42;55.71
50550;BME280;36505;52.512;13.460;2022-09-03T01:01:49;101401.09;;;13.29;56.12
50550;BME280;36505;52.512;13.460;2022-09-03T01:05:10;101405.38;;;13.25;56.43
50550;BME280;36505;52.512;13.460;2022-09-03T01:11:02;101397.72;;;13.27;56.20
50550;BME280;36505;52.512;13.460;2022-09-03T01:13:36;101398.81;;;13.26;56.50
50550;BME280;36505;52.512;13.460;2022-09-03T01:16:25;101391.78;;;13.19;56.48
50550;BME280;36505;52.512;13.460;2022-09-03T01:25:08;101397.78;;;13.16;56.74
50550;BME280;36505;52.512;13.460;2022-09-03T01:27:56;101389.91;;;13.07;56.95
50550;BME280;36505;52.512;13.460;2022-09-03T01:30:22;101392.41;;;13.09;57.11
50550;BME280;36505;52.512;13.460;2022-09-03T01:35:45;101394.47;;;13.02;57.36
50550;BME280;36505;52.512;13.460;2022-09-03T01:38:38;101392.78;;;13.01;57.31
50550;BME280;36505;52.512;13.460;2022-09-03T01:46:41;101378.00;;;12.90;57.54
50550;BME280;36505;52.512;13.460;2022-09-03T01:49:22;101384.09;;;12.92;57.62
50550;BME280;36505;52.512;13.460;2022-09-03T01:52:01;101384.84;;;12.88;57.72
50550;BME280;36505;52.512;13.460;2022-09-03T01:54:38;101384.00;;;12.87;57.68
50550;BME280;36505;52.512;13.460;2022-09-03T01:57:38;101376.84;;;12.86;57.84
50550;BME280;36505;52.512;13.460;2022-09-03T02:00:13;101378.97;;;12.84;57.74
50550;BME280;36505;52.512;13.460;2022-09-03T02:02:44;101380.06;;;12.83;57.74
50550;BME280;36505;52.512;13.460;2022-09-03T02:05:19;101388.28;;;12.83;57.87
50550;BME280;36505;52.512;13.460;2022-09-03T02:07:53;101385.44;;;12.78;58.26
50550;BME280;36505;52.512;13.460;2022-09-03T02:10:25;101382.38;;;12.75;57.93
50550;BME280;36505;52.512;13.460;2022-09-03T02:13:01;101382.59;;;12.73;58.16
50550;BME280;36505;52.512;13.460;2022-09-03T02:15:29;101396.81;;;12.70;58.31
50550;BME280;36505;52.512;13.460;2022-09-03T02:18:00;101391.81;;;12.67;58.64
50550;BME280;36505;52.512;13.460;2022-09-03T02:20:28;101397.94;;;12.69;58.39
50550;BME280;36505;52.512;13.460;2022-09-03T02:22:55;101388.72;;;12.63;58.73
50550;BME280;36505;52.512;13.460;2022-09-03T02:25:22;101397.69;;;12.59;58.95
50550;BME280;36505;52.512;13.460;2022-09-03T02:27:49;101391.59;;;12.57;58.80
50550;BME280;36505;52.512;13.460;2022-09-03T02:30:15;101396.53;;;12.55;59.18
50550;BME280;36505;52.512;13.460;2022-09-03T02:32:41;101394.00;;;12.53;59.14
50550;BME280;36505;52.512;13.460;2022-09-03T02:35:07;101394.00;;;12.53;59.02
50550;BME280;36505;52.512;13.460;2022-09-03T02:37:33;101393.63;;;12.50;58.90
50550;BME280;36505;52.512;13.460;2022-09-03T02:39:59;101400.69;;;12.46;59.08
50550;BME280;36505;52.512;13.460;2022-09-03T02:42:25;101386.59;;;12.42;59.45
50550;BME280;36505;52.512;13.460;2022-09-03T02:44:56;101390.91;;;12.38;59.57
50550;BME280;36505;52.512;13.460;2022-09-03T02:47:29;101382.34;;;12.35;59.44
50550;BME280;36505;52.512;13.460;2022-09-03T02:49:56;101393.31;;;12.35;59.53
50550;BME280;36505;52.512;13.460;2022-09-03T02:52:21;101386.28;;;12.27;59.73
50550;BME280;36505;52.512;13.460;2022-09-03T02:54:46;101394.53;;;12.27;60.00
50550;BME280;36505;52.512;13.460;2022-09-03T02:57:14;101397.25;;;12.27;59.71
50550;BME280;36505;52.512;13.460;2022-09-03T02:59:41;101395.81;;;12.24;59.63
50550;BME280;36505;52.512;13.460;2022-09-03T03:02:11;101397.50;;;12.25;59.73
50550;BME280;36505;52.512;13.460;2022-09-03T03:04:37;101393.53;;;12.21;59.66
50550;BME280;36505;52.512;13.460;2022-09-03T03:07:03;101394.50;;;12.15;59.95
50550;BME280;36505;52.512;13.460;2022-09-03T03:09:28;101392.84;;;12.14;59.94
50550;BME280;36505;52.512;13.460;2022-09-03T03:11:54;101395.34;;;12.16;59.83
50550;BME280;36505;52.512;13.460;2022-09-03T03:14:20;101392.84;;;12.14;59.79
50550;BME280;36505;52.512;13.460;2022-09-03T03:16:47;101391.19;;;12.13;59.84
50550;BME280;36505;52.512;13.460;2022-09-03T03:19:12;101388.28;;;12.08;59.77
50550;BME280;36505;52.512;13.460;2022-09-03T03:21:37;101385.53;;;12.08;59.86
50550;BME280;36505;52.512;13.460;2022-09-03T03:24:03;101393.78;;;12.08;60.00
50550;BME280;36505;52.512;13.460;2022-09-03T03:26:28;101392.94;;;12.08;59.91
50550;BME280;36505;52.512;13.460;2022-09-03T03:28:56;101388.19;;;12.03;59.99
50550;BME280;36505;52.512;13.460;2022-09-03T03:31:23;101388.19;;;12.03;60.05
50550;BME280;36505;52.512;13.460;2022-09-03T03:33:56;101393.22;;;12.06;60.00
50550;BME280;36505;52.512;13.460;2022-09-03T03:36:23;101398.31;;;12.03;60.30
50550;BME280;36505;52.512;13.460;2022-09-03T03:38:52;101394.16;;;12.00;60.18
50550;BME280;36505;52.512;13.460;2022-09-03T03:41:23;101399.66;;;12.00;60.34
50550;BME280;36505;52.512;13.460;2022-09-03T03:43:53;101399.66;;;12.00;60.05
50550;BME280;36505;52.512;13.460;2022-09-03T03:46:19;101405.38;;;11.99;60.28
50550;BME280;36505;52.512;13.460;2022-09-03T03:48:47;101410.63;;;12.00;60.37
50550;BME280;36505;52.512;13.460;2022-09-03T03:51:12;101412.53;;;12.00;60.33
50550;BME280;36505;52.512;13.460;2022-09-03T03:53:38;101409.41;;;11.96;60.35
50550;BME280;36505;52.512;13.460;2022-09-03T03:56:06;101410.38;;;12.02;60.32
50550;BME280;36505;52.512;13.460;2022-09-03T03:58:32;101410.97;;;12.04;60.19
50550;BME280;36505;52.512;13.460;2022-09-03T04:01:08;101407.41;;;12.03;59.92
50550;BME280;36505;52.512;13.460;2022-09-03T04:03:34;101404.66;;;12.03;60.30
50550;BME280;36505;52.512;13.460;2022-09-03T04:06:00;101414.56;;;12.04;60.35
50550;BME280;36505;52.512;13.460;2022-09-03T04:08:27;101409.06;;;12.04;60.37
50550;BME280;36505;52.512;13.460;2022-09-03T04:10:53;101405.72;;;12.02;60.34
50550;BME280;36505;52.512;13.460;2022-09-03T04:13:18;101404.03;;;12.01;60.54
50550;BME280;36505;52.512;13.460;2022-09-03T04:15:44;101402.41;;;12.00;60.76
50550;BME280;36505;52.512;13.460;2022-09-03T04:18:10;101403.94;;;11.96;60.97
50550;BME280;36505;52.512;13.460;2022-09-03T04:20:35;101397.38;;;11.97;60.92
50550;BME280;36505;52.512;13.460;2022-09-03T04:23:01;101401.19;;;11.96;60.98
50550;BME280;36505;52.512;13.460;2022-09-03T04:25:27;101391.16;;;11.90;61.48
50550;BME280;36505;52.512;13.460;2022-09-03T04:27:53;101399.16;;;11.92;61.44
50550;BME280;36505;52.512;13.460;2022-09-03T04:30:18;101400.00;;;11.92;61.45
50550;BME280;36505;52.512;13.460;2022-09-03T04:32:44;101384.94;;;11.83;61.79
50550;BME280;36505;52.512;13.460;2022-09-03T04:35:23;101397.13;;;11.87;61.90
50550;BME280;36505;52.512;13.460;2022-09-03T04:37:49;101391.03;;;11.85;62.21
50550;BME280;36505;52.512;13.460;2022-09-03T04:40:14;101395.69;;;11.84;62.22
50550;BME280;36505;52.512;13.460;2022-09-03T04:42:40;101402.63;;;11.87;62.38
50550;BME280;36505;52.512;13.460;2022-09-03T04:45:06;101400.47;;;11.89;62.59
50550;BME280;36505;52.512;13.460;2022-09-03T04:47:31;101400.47;;;11.89;62.62
50550;BME280;36505;52.512;13.460;2022-09-03T04:49:57;101399.16;;;11.92;62.81
50550;BME280;36505;52.512;13.460;2022-09-03T04:52:23;101388.91;;;11.87;62.88
50550;BME280;36505;52.512;13.460;2022-09-03T04:54:48;101398.09;;;11.93;63.15
50550;BME280;36505;52.512;13.460;2022-09-03T04:57:14;101397.47;;;11.91;63.21
50550;BME280;36505;52.512;13.460;2022-09-03T04:59:39;101395.81;;;11.90;63.43
50550;BME280;36505;52.512;13.460;2022-09-03T05:02:05;101401.31;;;11.90;63.72
50550;BME280;36505;52.512;13.460;2022-09-03T05:04:31;101408.34;;;11.97;63.60
50550;BME280;36505;52.512;13.460;2022-09-03T05:06:56;101409.41;;;11.96;63.81
50550;BME280;36505;52.512;13.460;2022-09-03T05:09:22;101407.28;;;11.98;63.96
50550;BME280;36505;52.512;13.460;2022-09-03T05:11:47;101409.53;;;12.01;64.17
50550;BME280;36505;52.512;13.460;2022-09-03T05:14:12;101406.66;;;12.08;63.96
50550;BME280;36505;52.512;13.460;2022-09-03T05:16:38;101419.09;;;12.10;64.22
50550;BME280;36505;52.512;13.460;2022-09-03T05:19:03;101407.38;;;12.15;63.96
50550;BME280;36505;52.512;13.460;2022-09-03T05:21:30;101408.00;;;12.17;63.95
50550;BME280;36505;52.512;13.460;2022-09-03T05:23:56;101406.47;;;12.21;64.05
50550;BME280;36505;52.512;13.460;2022-09-03T05:26:27;101407.53;;;12.20;64.31
50550;BME280;36505;52.512;13.460;2022-09-03T05:28:58;101414.44;;;12.22;64.30
50550;BME280;36505;52.512;13.460;2022-09-03T05:31:27;101415.41;;;12.28;64.45
50550;BME280;36505;52.512;13.460;2022-09-03T05:33:55;101401.91;;;12.26;64.30
50550;BME280;36505;52.512;13.460;2022-09-03T05:36:24;101423.97;;;12.43;63.99
50550;BME280;36505;52.512;13.460;2022-09-03T05:38:50;101422.06;;;12.55;63.67
50550;BME280;36505;52.512;13.460;2022-09-03T05:41:18;101424.47;;;12.52;63.93
50550;BME280;36505;52.512;13.460;2022-09-03T05:43:47;101418.25;;;12.45;64.19
50550;BME280;36505;52.512;13.460;2022-09-03T05:46:20;101416.22;;;12.40;64.28
50550;BME280;36505;52.512;13.460;2022-09-03T05:48:46;101409.31;;;12.38;64.39
50550;BME280;36505;52.512;13.460;2022-09-03T05:51:13;101423.25;;;12.36;64.79
50550;BME280;36505;52.512;13.460;2022-09-03T05:53:41;101423.66;;;12.28;65.18
50550;BME280;36505;52.512;13.460;2022-09-03T05:56:11;101405.50;;;12.27;65.06
50550;BME280;36505;52.512;13.460;2022-09-03T05:58:39;101427.47;;;12.39;64.72
50550;BME280;36505;52.512;13.460;2022-09-03T06:01:42;101414.31;;;12.41;65.00
50550;BME280;36505;52.512;13.460;2022-09-03T06:06:29;101418.81;;;12.70;64.23
50550;BME280;36505;52.512;13.460;2022-09-03T06:08:57;101413.25;;;12.93;63.64
50550;BME280;36505;52.512;13.460;2022-09-03T06:11:24;101418.81;;;13.10;63.03
50550;BME280;36505;52.512;13.460;2022-09-03T06:13:57;101414.00;;;13.29;62.62
50550;BME280;36505;52.512;13.460;2022-09-03T06:16:24;101407.78;;;13.50;61.85
50550;BME280;36505;52.512;13.460;2022-09-03T06:18:49;101419.41;;;13.69;61.38
50550;BME280;36505;52.512;13.460;2022-09-03T06:21:15;101410.84;;;13.99;60.78
50550;BME280;36505;52.512;13.460;2022-09-03T06:23:41;101412.44;;;14.50;59.45
50550;BME280;36505;52.512;13.460;2022-09-03T06:26:11;101416.13;;;15.21;56.79
50550;BME280;36505;52.512;13.460;2022-09-03T06:28:38;101412.81;;;15.51;55.68
50550;BME280;36505;52.512;13.460;2022-09-03T06:31:07;101417.88;;;15.54;55.41
50550;BME280;36505;52.512;13.460;2022-09-03T06:33:34;101422.09;;;16.72;52.28
50550;BME280;36505;52.512;13.460;2022-09-03T06:36:03;101423.31;;;16.91;51.45
50550;BME280;36505;52.512;13.460;2022-09-03T06:38:30;101418.22;;;17.46;50.37
50550;BME280;36505;52.512;13.460;2022-09-03T06:41:00;101415.75;;;18.30;47.63
50550;BME280;36505;52.512;13.460;2022-09-03T06:43:31;101414.41;;;18.02;47.75
50550;BME280;36505;52.512;13.460;2022-09-03T06:46:10;101419.81;;;17.16;49.76
50550;BME280;36505;52.512;13.460;2022-09-03T06:48:37;101414.94;;;16.71;50.81
50550;BME280;36505;52.512;13.460;2022-09-03T06:51:04;101423.34;;;17.07;50.43
50550;BME280;36505;52.512;13.460;2022-09-03T06:53:36;101425.19;;;17.68;48.85
50550;BME280;36505;52.512;13.460;2022-09-03T06:56:07;101410.38;;;18.84;46.43
50550;BME280;36505;52.512;13.460;2022-09-03T06:58:40;101417.41;;;19.26;45.72
50550;BME280;36505;52.512;13.460;2022-09-03T07:01:10;101415.03;;;20.55;42.73
50550;BME280;36505;52.512;13.460;2022-09-03T07:03:37;101399.66;;;21.66;39.82
50550;BME280;36505;52.512;13.460;2022-09-03T07:06:05;101407.91;;;21.72;39.91
50550;BME280;36505;52.512;13.460;2022-09-03T07:08:32;101410.63;;;22.28;38.75
50550;BME280;36505;52.512;13.460;2022-09-03T07:10:59;101416.06;;;22.52;37.86
50550;BME280;36505;52.512;13.460;2022-09-03T07:13:25;101413.59;;;23.18;36.53
50550;BME280;36505;52.512;13.460;2022-09-03T07:15:59;101401.28;;;22.51;37.83
50550;BME280;36505;52.512;13.460;2022-09-03T07:18:25;101403.03;;;23.15;36.61
50550;BME280;36505;52.512;13.460;2022-09-03T07:20:50;101403.25;;;23.55;36.17
50550;BME280;36505;52.512;13.460;2022-09-03T07:23:16;101422.50;;;24.15;35.05
50550;BME280;36505;52.512;13.460;2022-09-03T07:25:42;101410.91;;;23.00;36.23
50550;BME280;36505;52.512;13.460;2022-09-03T07:28:08;101404.69;;;23.16;36.06
50550;BME280;36505;52.512;13.460;2022-09-03T07:30:33;101416.03;;;22.05;38.70
50550;BME280;36505;52.512;13.460;2022-09-03T07:32:58;101399.66;;;21.48;39.64
50550;BME280;36505;52.512;13.460;2022-09-03T07:35:28;101423.19;;;20.70;40.75
50550;BME280;36505;52.512;13.460;2022-09-03T07:37:53;101423.94;;;20.23;41.61
50550;BME280;36505;52.512;13.460;2022-09-03T07:40:19;101427.22;;;19.62;43.22
50550;BME280;36505;52.512;13.460;2022-09-03T07:42:44;101422.16;;;19.20;44.23
50550;BME280;36505;52.512;13.460;2022-09-03T07:45:12;101423.13;;;18.90;45.19
50550;BME280;36505;52.512;13.460;2022-09-03T07:47:45;101424.09;;;18.56;45.77
50550;BME280;36505;52.512;13.460;2022-09-03T07:50:11;101428.00;;;18.19;46.81
50550;BME280;36505;52.512;13.460;2022-09-03T07:52:37;101423.00;;;18.11;47.29
50550;BME280;36505;52.512;13.460;2022-09-03T07:55:02;101433.25;;;18.26;46.86
50550;BME280;36505;52.512;13.460;2022-09-03T07:57:28;101426.84;;;18.45;46.53
50550;BME280;36505;52.512;13.460;2022-09-03T07:59:54;101424.25;;;18.89;45.86
50550;BME280;36505;52.512;13.460;2022-09-03T08:02:20;101422.97;;;19.75;43.99
50550;BME280;36505;52.512;13.460;2022-09-03T08:04:45;101441.16;;;21.49;40.04
50550;BME280;36505;52.512;13.460;2022-09-03T08:07:11;101431.03;;;21.91;39.11
50550;BME280;36505;52.512;13.460;2022-09-03T08:09:36;101437.06;;;21.23;39.84
50550;BME280;36505;52.512;13.460;2022-09-03T08:12:02;101435.31;;;21.03;40.22
50550;BME280;36505;52.512;13.460;2022-09-03T08:14:27;101437.97;;;20.42;41.39
50550;BME280;36505;52.512;13.460;2022-09-03T08:16:56;101425.34;;;20.21;42.27
50550;BME280;36505;52.512;13.460;2022-09-03T08:19:24;101430.31;;;20.58;41.49
50550;BME280;36505;52.512;13.460;2022-09-03T08:21:49;101437.97;;;20.42;41.38
50550;BME280;36505;52.512;13.460;2022-09-03T08:24:16;101425.84;;;21.04;40.03
50550;BME280;36505;52.512;13.460;2022-09-03T08:26:42;101427.84;;;20.80;40.77
50550;BME280;36505;52.512;13.460;2022-09-03T08:29:08;101421.06;;;20.62;41.03
50550;BME280;36505;52.512;13.460;2022-09-03T08:31:34;101424.22;;;21.46;40.17
50550;BME280;36505;52.512;13.460;2022-09-03T08:34:01;101431.03;;;22.56;37.76
50550;BME280;36505;52.512;13.460;2022-09-03T08:36:30;101422.00;;;22.91;37.29
50550;BME280;36505;52.512;13.460;2022-09-03T08:38:57;101407.81;;;22.74;37.45
50550;BME280;36505;52.512;13.460;2022-09-03T08:49:59;101402.19;;;26.48;31.14
50550;BME280;36505;52.512;13.460;2022-09-03T08:52:51;101405.19;;;27.19;29.99
50550;BME280;36505;52.512;13.460;2022-09-03T08:57:47;101408.44;;;27.71;28.99
50550;BME280;36505;52.512;13.460;2022-09-03T09:00:14;101393.38;;;27.55;29.38
50550;BME280;36505;52.512;13.460;2022-09-03T09:08:19;101394.50;;;28.98;26.81
50550;BME280;36505;52.512;13.460;2022-09-03T09:11:01;101394.94;;;28.88;26.55
50550;BME280;36505;52.512;13.460;2022-09-03T09:16:23;101392.38;;;28.83;27.17
50550;BME280;36505;52.512;13.460;2022-09-03T09:21:35;101392.69;;;29.42;26.01
50550;BME280;36505;52.512;13.460;2022-09-03T09:24:09;101396.22;;;29.39;24.82
50550;BME280;36505;52.512;13.460;2022-09-03T09:26:42;101389.69;;;28.29;26.10
50550;BME280;36505;52.512;13.460;2022-09-03T09:29:08;101373.50;;;28.26;26.76
50550;BME280;36505;52.512;13.460;2022-09-03T09:31:35;101381.03;;;28.34;26.58
50550;BME280;36505;52.512;13.460;2022-09-03T09:34:06;101368.59;;;28.35;26.84
50550;BME280;36505;52.512;13.460;2022-09-03T09:36:42;101375.59;;;28.17;26.73
50550;BME280;36505;52.512;13.460;2022-09-03T09:39:10;101368.38;;;27.74;27.91
50550;BME280;36505;52.512;13.460;2022-09-03T09:41:35;101372.41;;;27.23;28.61
50550;BME280;36505;52.512;13.460;2022-09-03T09:44:02;101369.31;;;27.16;28.82
50550;BME280;36505;52.512;13.460;2022-09-03T09:46:38;101372.66;;;27.09;27.45
50550;BME280;36505;52.512;13.460;2022-09-03T09:49:32;101364.00;;;26.56;27.52
50550;BME280;36505;52.512;13.460;2022-09-03T09:52:10;101370.28;;;25.89;28.79
50550;BME280;36505;52.512;13.460;2022-09-03T09:54:40;101374.56;;;24.69;29.75
50550;BME280;36505;52.512;13.460;2022-09-03T09:57:13;101367.31;;;24.68;30.83
50550;BME280;36505;52.512;13.460;2022-09-03T09:59:42;101368.81;;;25.31;29.64
50550;BME280;36505;52.512;13.460;2022-09-03T10:02:28;101364.81;;;25.32;30.04
50550;BME280;36505;52.512;13.460;2022-09-03T10:05:10;101374.56;;;25.35;29.70
50550;BME280;36505;52.512;13.460;2022-09-03T10:07:36;101376.53;;;25.26;29.63
50550;BME280;36505;52.512;13.460;2022-09-03T10:12:41;101364.28;;;25.04;30.89
50550;BME280;36505;52.512;13.460;2022-09-03T10:15:22;101354.00;;;24.83;29.71
50550;BME280;36505;52.512;13.460;2022-09-03T10:20:52;101347.72;;;24.29;30.83
50550;BME280;36505;52.512;13.460;2022-09-03T10:23:23;101345.06;;;24.01;30.42
50550;BME280;36505;52.512;13.460;2022-09-03T10:26:14;101340.38;;;23.66;31.31
50550;BME280;36505;52.512;13.460;2022-09-03T10:28:45;101340.13;;;23.54;31.62
50550;BME280;36505;52.512;13.460;2022-09-03T10:47:52;101333.63;;;22.13;32.79
50550;BME280;36505;52.512;13.460;2022-09-03T10:50:33;101337.53;;;21.80;34.09
50550;BME280;36505;52.512;13.460;2022-09-03T10:56:08;101334.81;;;21.61;34.89
50550;BME280;36505;52.512;13.460;2022-09-03T11:01:54;101319.16;;;21.46;34.70
50550;BME280;36505;52.512;13.460;2022-09-03T11:04:36;101319.47;;;21.07;35.88
50550;BME280;36505;52.512;13.460;2022-09-03T11:07:12;101305.09;;;21.19;35.73
50550;BME280;36505;52.512;13.460;2022-09-03T11:09:47;101309.13;;;21.45;35.72
50550;BME280;36505;52.512;13.460;2022-09-03T11:12:22;101305.16;;;21.33;34.92
50550;BME280;36505;52.512;13.460;2022-09-03T11:18:17;101304.91;;;21.10;35.53
50550;BME280;36505;52.512;13.460;2022-09-03T11:20:46;101322.53;;;21.06;35.15
50550;BME280;36505;52.512;13.460;2022-09-03T11:23:15;101308.38;;;20.83;35.43
50550;BME280;36505;52.512;13.460;2022-09-03T11:25:48;101299.47;;;20.81;35.70
50550;BME280;36505;52.512;13.460;2022-09-03T11:33:27;101301.94;;;20.64;36.29
50550;BME280;36505;52.512;13.460;2022-09-03T11:35:58;101294.53;;;20.78;36.43
50550;BME280;36505;52.512;13.460;2022-09-03T11:38:26;101300.00;;;20.83;36.55
50550;BME280;36505;52.512;13.460;2022-09-03T11:45:48;101299.84;;;20.75;35.43
50550;BME280;36505;52.512;13.460;2022-09-03T11:48:35;101300.81;;;20.65;36.20
50550;BME280;36505;52.512;13.460;2022-09-03T11:51:01;101289.31;;;20.53;35.32
50550;BME280;36505;52.512;13.460;2022-09-03T11:53:33;101297.94;;;20.52;35.85
50550;BME280;36505;52.512;13.460;2022-09-03T11:58:31;101287.66;;;20.52;36.04
50550;BME280;36505;52.512;13.460;2022-09-03T12:01:01;101276.41;;;20.38;36.30
50550;BME280;36505;52.512;13.460;2022-09-03T12:03:38;101270.25;;;20.41;35.85
50550;BME280;36505;52.512;13.460;2022-09-03T12:14:18;101276.88;;;20.45;34.91
50550;BME280;36505;52.512;13.460;2022-09-03T12:16:56;101261.84;;;20.46;35.21
50550;BME280;36505;52.512;13.460;2022-09-03T12:19:35;101266.69;;;20.60;34.42
50550;BME280;36505;52.512;13.460;2022-09-03T12:22:02;101255.66;;;20.73;35.43
50550;BME280;36505;52.512;13.460;2022-09-03T12:24:28;101258.72;;;20.90;34.76
50550;BME280;36505;52.512;13.460;2022-09-03T12:27:00;101248.78;;;21.03;34.01
50550;BME280;36505;52.512;13.460;2022-09-03T12:29:28;101254.06;;;21.05;33.38
50550;BME280;36505;52.512;13.460;2022-09-03T12:31:55;101255.72;;;20.87;33.31
50550;BME280;36505;52.512;13.460;2022-09-03T12:34:22;101264.22;;;20.77;33.10
50550;BME280;36505;52.512;13.460;2022-09-03T12:36:50;101251.94;;;20.59;33.78
50550;BME280;36505;52.512;13.460;2022-09-03T12:39:19;101251.75;;;20.74;34.26
50550;BME280;36505;52.512;13.460;2022-09-03T12:47:11;101232.59;;;21.05;33.65
50550;BME280;36505;52.512;13.460;2022-09-03T12:49:39;101232.16;;;21.17;32.95
50550;BME280;36505;52.512;13.460;2022-09-03T12:52:47;101233.22;;;21.21;33.36
50550;BME280;36505;52.512;13.460;2022-09-03T13:00:21;101239.53;;;20.89;33.52
50550;BME280;36505;52.512;13.460;2022-09-03T13:02:58;101224.88;;;20.83;34.28
50550;BME280;36505;52.512;13.460;2022-09-03T13:05:32;101224.28;;;20.86;34.22
50550;BME280;36505;52.512;13.460;2022-09-03T13:08:01;101231.09;;;20.75;34.30
50550;BME280;36505;52.512;13.460;2022-09-03T13:10:35;101218.41;;;20.69;34.09
50550;BME280;36505;52.512;13.460;2022-09-03T13:13:22;101223.22;;;20.64;34.40
50550;BME280;36505;52.512;13.460;2022-09-03T13:21:51;101220.88;;;20.71;33.89
50550;BME280;36505;52.512;13.460;2022-09-03T13:34:54;101215.91;;;21.24;33.27
50550;BME280;36505;52.512;13.460;2022-09-03T13:39:56;101216.94;;;21.09;33.44
50550;BME280;36505;52.512;13.460;2022-09-03T13:42:26;101204.38;;;21.12;33.74
50550;BME280;36505;52.512;13.460;2022-09-03T13:47:51;101214.22;;;21.23;33.54
50550;BME280;36505;52.512;13.460;2022-09-03T13:51:18;101195.97;;;21.17;33.14
50550;BME280;36505;52.512;13.460;2022-09-03T13:59:11;101186.81;;;21.30;33.51
50550;BME280;36505;52.512;13.460;2022-09-03T14:02:05;101187.88;;;21.34;33.67
50550;BME280;36505;52.512;13.460;2022-09-03T14:05:02;101183.75;;;21.45;32.80
50550;BME280;36505;52.512;13.460;2022-09-03T14:15:35;101186.53;;;21.32;32.58
50550;BME280;36505;52.512;13.460;2022-09-03T14:18:13;101190.03;;;21.37;33.26
50550;BME280;36505;52.512;13.460;2022-09-03T14:20:55;101190.13;;;21.32;33.03
50550;BME280;36505;52.512;13.460;2022-09-03T14:25:58;101179.59;;;21.29;33.77
50550;BME280;36505;52.512;13.460;2022-09-03T14:28:32;101190.81;;;21.24;33.32
50550;BME280;36505;52.512;13.460;2022-09-03T14:33:35;101171.13;;;21.02;33.47
50550;BME280;36505;52.512;13.460;2022-09-03T14:41:25;101183.84;;;21.08;34.31
50550;BME280;36505;52.512;13.460;2022-09-03T14:46:57;101165.91;;;21.14;33.08
50550;BME280;36505;52.512;13.460;2022-09-03T15:03:38;101167.03;;;20.80;33.99
50550;BME280;36505;52.512;13.460;2022-09-03T15:09:37;101157.19;;;20.69;34.09
50550;BME280;36505;52.512;13.460;2022-09-03T15:12:24;101164.69;;;20.69;34.08
50550;BME280;36505;52.512;13.460;2022-09-03T15:14:56;101165.13;;;20.76;34.57
50550;BME280;36505;52.512;13.460;2022-09-03T15:20:02;101164.16;;;20.85;34.11
50550;BME280;36505;52.512;13.460;2022-09-03T15:22:44;101153.63;;;20.82;34.05
50550;BME280;36505;52.512;13.460;2022-09-03T15:25:40;101169.81;;;20.80;34.40
50550;BME280;36505;52.512;13.460;2022-09-03T15:31:11;101167.03;;;20.80;34.32
50550;BME280;36505;52.512;13.460;2022-09-03T15:33:43;101166.94;;;20.85;33.65
50550;BME280;36505;52.512;13.460;2022-09-03T15:36:20;101165.59;;;20.83;33.51
50550;BME280;36505;52.512;13.460;2022-09-03T15:39:00;101165.38;;;20.79;33.67
50550;BME280;36505;52.512;13.460;2022-09-03T15:41:45;101165.09;;;20.81;33.82
50550;BME280;36505;52.512;13.460;2022-09-03T15:44:16;101163.94;;;20.82;34.10
50550;BME280;36505;52.512;13.460;2022-09-03T15:47:03;101161.69;;;20.84;34.35
50550;BME280;36505;52.512;13.460;2022-09-03T15:52:25;101166.84;;;20.90;34.30
50550;BME280;36505;52.512;13.460;2022-09-03T15:55:05;101162.56;;;20.98;34.39
50550;BME280;36505;52.512;13.460;2022-09-03T15:57:45;101165.03;;;21.00;33.88
50550;BME280;36505;52.512;13.460;2022-09-03T16:00:16;101165.13;;;20.95;34.38
50550;BME280;36505;52.512;13.460;2022-09-03T16:05:48;101172.22;;;20.87;33.91
50550;BME280;36505;52.512;13.460;2022-09-03T16:08:27;101167.34;;;20.79;34.38
50550;BME280;36505;52.512;13.460;2022-09-03T16:11:16;101167.63;;;20.77;34.53
50550;BME280;36505;52.512;13.460;2022-09-03T16:14:00;101166.59;;;20.73;34.65
50550;BME280;36505;52.512;13.460;2022-09-03T16:16:40;101171.16;;;20.64;34.52
50550;BME280;36505;52.512;13.460;2022-09-03T16:19:20;101159.31;;;20.59;35.08
50550;BME280;36505;52.512;13.460;2022-09-03T16:21:58;101165.25;;;20.52;35.45
50550;BME280;36505;52.512;13.460;2022-09-03T16:25:00;101167.28;;;20.46;35.36